Time;durP1;ratioP1;P1;durP2;ratioP2;P2;SDS_P1;SDS_P2;PMS_P1;PMS_P2;Temp;Humidity;BMP_temperature;BMP_pressure;BME280_temperature;BME280_humidity;BME280_pressure;Samples;Min_cycle;Max_cycle;Signal;HPM_P1;HPM_P2
2022/06/04 00:01:12;;;;;;;1999.90;999.90;;;;;;;18.75;72.73;95224.47;5031638;28;20032;-70
2022/06/04 00:03:39;;;;;;;1999.90;999.90;;;;;;;19.36;73.08;95291.94;5029359;28;20492;-70
2022/06/04 00:06:04;;;;;;;1999.90;999.90;;;;;;;18.48;72.94;95139.97;5031720;28;20485;-70
2022/06/04 00:08:31;;;;;;;1999.90;999.90;;;;;;;18.98;72.83;95273.06;5013115;28;20037;-70
2022/06/04 00:16:27;;;;;;;1999.90;999.90;;;;;;;18.64;72.80;95229.63;5011864;28;20930;-70
2022/06/04 00:18:52;;;;;;;1999.90;999.90;;;;;;;18.43;72.89;95195.69;5010360;28;20383;-70
2022/06/04 00:21:18;;;;;;;1999.90;999.90;;;;;;;18.51;72.89;95185.06;5011363;28;20029;-71
2022/06/04 00:23:43;;;;;;;1999.90;999.90;;;;;;;17.73;72.03;95098.00;5010560;28;20026;-70
2022/06/04 00:26:11;;;;;;;1999.90;999.90;;;;;;;19.41;72.38;95342.13;5011367;28;20026;-71
2022/06/04 00:28:37;;;;;;;1999.90;999.90;;;;;;;18.36;72.60;95202.84;5009924;28;20033;-70
2022/06/04 00:31:04;;;;;;;1999.90;999.90;;;;;;;19.63;73.15;95413.50;5011399;28;20485;-70
2022/06/04 00:33:29;;;;;;;1999.90;999.90;;;;;;;17.25;72.95;95022.78;5010416;28;20109;-70
2022/06/04 00:35:57;;;;;;;1999.90;999.90;;;;;;;18.46;72.66;95178.03;5011403;28;20207;-70
2022/06/04 00:38:24;;;;;;;1999.90;999.90;;;;;;;19.03;72.10;95303.22;5010909;28;20033;-70
2022/06/04 00:41:11;;;;;;;1999.90;999.90;;;;;;;19.48;72.13;95332.25;5010313;28;20033;-70
2022/06/04 00:44:01;;;;;;;1999.90;999.90;;;;;;;19.75;71.99;95372.88;5011019;28;20030;-71
2022/06/04 00:46:41;;;;;;;1999.90;999.90;;;;;;;19.31;72.33;95313.03;5010812;28;20052;-71
2022/06/04 00:49:18;;;;;;;1999.90;999.90;;;;;;;18.18;72.55;95175.53;5009579;28;20509;-71
2022/06/04 00:51:48;;;;;;;1999.90;999.90;;;;;;;18.62;72.59;95235.34;5010954;28;20022;-71
2022/06/04 00:54:14;;;;;;;1999.90;999.90;;;;;;;17.89;72.45;95136.44;5010756;28;20029;-70
2022/06/04 00:56:57;;;;;;;1999.90;999.90;;;;;;;19.90;72.79;95425.22;5011129;28;20390;-70
2022/06/04 00:59:42;;;;;;;1999.90;999.90;;;;;;;19.86;72.71;95433.25;5009907;28;20033;-71
2022/06/04 01:02:32;;;;;;;1999.90;999.90;;;;;;;19.84;72.67;95424.72;5008964;28;20096;-70
2022/06/04 01:05:29;;;;;;;1999.90;999.90;;;;;;;19.84;72.61;95430.13;5009886;28;20149;-70
2022/06/04 01:08:20;;;;;;;1999.90;999.90;;;;;;;19.73;72.25;95432.59;5010649;28;20080;-70
2022/06/04 01:11:27;;;;;;;1999.90;999.90;;;;;;;19.70;72.86;95435.22;5007391;28;20038;-70
2022/06/04 01:14:17;;;;;;;1999.90;999.90;;;;;;;19.66;72.50;95437.09;5008481;28;20530;-70
2022/06/04 01:16:59;;;;;;;1999.90;999.90;;;;;;;19.73;72.90;95438.00;5009340;28;20117;-70
2022/06/04 01:19:38;;;;;;;1999.90;999.90;;;;;;;17.71;72.71;95119.88;5009477;28;20022;-70
2022/06/04 01:22:31;;;;;;;1999.90;999.90;;;;;;;19.75;72.80;95429.56;5009686;28;20026;-71
2022/06/04 01:25:24;;;;;;;1999.90;999.90;;;;;;;19.69;72.50;95442.56;5009175;28;20080;-70
2022/06/04 01:28:06;;;;;;;1999.90;999.90;;;;;;;18.38;73.08;95276.78;5010465;28;20096;-71
2022/06/04 01:30:49;;;;;;;1999.90;999.90;;;;;;;18.12;72.78;95199.25;5010436;28;20164;-70
2022/06/04 01:33:25;;;;;;;1999.90;999.90;;;;;;;19.67;72.93;95447.53;5009710;28;20030;-70
2022/06/04 01:35:54;;;;;;;1999.90;999.90;;;;;;;19.67;72.92;95442.13;5009149;28;20059;-70
2022/06/04 01:38:34;;;;;;;1999.90;999.90;;;;;;;19.28;72.80;95400.03;5009735;28;20037;-70
2022/06/04 01:41:22;;;;;;;1999.90;999.90;;;;;;;19.68;72.64;95427.50;5009406;28;20030;-71
2022/06/04 01:43:59;;;;;;;1999.90;999.90;;;;;;;18.72;72.90;95314.88;5010276;28;20481;-71
2022/06/04 01:46:32;;;;;;;1999.90;999.90;;;;;;;17.91;72.53;95190.66;5009053;28;20442;-70
2022/06/04 01:49:07;;;;;;;1999.90;999.90;;;;;;;18.05;72.65;95193.69;5009034;28;20029;-70
2022/06/04 01:51:34;;;;;;;1999.90;999.90;;;;;;;17.47;72.30;95163.84;5010248;28;20017;-70
2022/06/04 01:54:04;;;;;;;1999.90;999.90;;;;;;;17.74;71.85;95201.81;5010106;28;20068;-70
2022/06/04 01:56:37;;;;;;;1999.90;999.90;;;;;;;17.53;72.26;95226.22;5010110;28;20026;-70
2022/06/04 01:59:14;;;;;;;1999.90;999.90;;;;;;;19.29;73.70;95459.00;5008956;28;20057;-70
2022/06/04 02:01:42;;;;;;;1999.90;999.90;;;;;;;16.59;73.93;95102.06;5008248;28;20475;-70
2022/06/04 02:04:13;;;;;;;1999.90;999.90;;;;;;;18.84;73.30;95400.22;5008914;28;20038;-70
2022/06/04 02:07:29;;;;;;;1999.90;999.90;;;;;;;17.53;73.79;95221.63;5010005;28;20379;-70
2022/06/04 02:09:35;;;;;;;1999.90;999.90;;;;;;;17.31;73.16;95149.63;5009472;28;20042;-70
2022/06/04 02:12:04;;;;;;;1999.90;999.90;;;;;;;17.48;73.19;95162.72;5010276;28;20022;-70
2022/06/04 02:14:30;;;;;;;1999.90;999.90;;;;;;;17.10;72.96;95110.34;5013756;28;20057;-70
2022/06/04 02:17:04;;;;;;;1999.90;999.90;;;;;;;17.76;72.43;95178.00;5013917;28;20123;-70
2022/06/04 02:19:29;;;;;;;1999.90;999.90;;;;;;;17.70;72.70;95198.19;5012277;28;20040;-70
2022/06/04 02:21:55;;;;;;;1999.90;999.90;;;;;;;17.85;72.43;95181.31;5013442;28;20018;-71
2022/06/04 02:24:20;;;;;;;1999.90;999.90;;;;;;;18.77;72.56;95327.28;5013478;28;20033;-71
2022/06/04 02:26:46;;;;;;;1999.90;999.90;;;;;;;17.82;72.51;95215.09;5013678;28;20499;-70
2022/06/04 02:29:12;;;;;;;1999.90;999.90;;;;;;;19.47;72.62;95429.72;5012292;28;20112;-70
2022/06/04 02:31:49;;;;;;;1999.90;999.90;;;;;;;19.42;72.70;95457.75;5012226;28;20026;-70
2022/06/04 02:34:23;;;;;;;1999.90;999.90;;;;;;;19.41;72.85;95433.84;5012858;28;20068;-70
2022/06/04 02:36:48;;;;;;;1999.90;999.90;;;;;;;19.39;72.68;95438.78;5013617;28;20428;-70
2022/06/04 02:39:25;;;;;;;1999.90;999.90;;;;;;;18.22;72.42;95265.25;5012992;28;20026;-70
2022/06/04 02:42:13;;;;;;;1999.90;999.90;;;;;;;19.31;72.41;95451.34;5011489;28;20034;-70
2022/06/04 02:44:51;;;;;;;1999.90;999.90;;;;;;;17.13;71.64;95128.44;5013044;28;20494;-69
2022/06/04 02:47:28;;;;;;;1999.90;999.90;;;;;;;16.95;72.31;95080.78;5013287;28;20072;-69
2022/06/04 02:50:04;;;;;;;1999.90;999.90;;;;;;;19.29;72.55;95480.56;5012087;28;20121;-70
2022/06/04 02:52:32;;;;;;;1999.90;999.90;;;;;;;17.76;72.49;95207.59;5012552;28;20037;-71
2022/06/04 02:55:02;;;;;;;1999.90;999.90;;;;;;;18.64;72.54;95340.06;5013126;28;20028;-70
2022/06/04 02:57:32;;;;;;;1999.90;999.90;;;;;;;17.35;72.14;95151.28;5013103;28;20068;-70
2022/06/04 02:59:58;;;;;;;1999.90;999.90;;;;;;;17.03;72.12;95102.06;5011866;28;20026;-69
2022/06/04 03:02:28;;;;;;;1999.90;999.90;;;;;;;18.62;72.19;95337.72;5013343;28;20033;-70
2022/06/04 03:04:55;;;;;;;1999.90;999.90;;;;;;;17.49;72.21;95177.72;5011379;28;20060;-70
2022/06/04 03:07:22;;;;;;;1999.90;999.90;;;;;;;17.65;71.84;95183.09;5012850;28;20053;-70
2022/06/04 03:09:58;;;;;;;1999.90;999.90;;;;;;;17.46;71.99;95191.09;5012443;28;20050;-70
2022/06/04 03:12:23;;;;;;;1999.90;999.90;;;;;;;18.07;72.53;95282.97;5012014;28;20022;-70
2022/06/04 03:14:49;;;;;;;1999.90;999.90;;;;;;;17.43;72.41;95222.13;5012861;28;20026;-69
2022/06/04 03:17:14;;;;;;;1999.90;999.90;;;;;;;17.27;72.44;95143.38;5012911;28;20072;-70
2022/06/04 03:19:40;;;;;;;1999.90;999.90;;;;;;;17.67;72.82;95248.91;5009907;28;20076;-69
2022/06/04 03:22:06;;;;;;;1999.90;999.90;;;;;;;19.13;72.69;95437.47;5012496;28;20783;-70
2022/06/04 03:24:31;;;;;;;1999.90;999.90;;;;;;;18.52;72.72;95362.50;5011595;28;20014;-70
2022/06/04 03:26:56;;;;;;;1999.90;999.90;;;;;;;17.63;72.78;95223.03;5012431;28;20030;-70
2022/06/04 03:29:22;;;;;;;1999.90;999.90;;;;;;;16.95;72.52;95104.94;5011156;28;20049;-70
2022/06/04 03:31:48;;;;;;;1999.90;999.90;;;;;;;17.48;72.48;95199.59;5012269;28;20040;-70
2022/06/04 03:34:14;;;;;;;1999.90;999.90;;;;;;;17.97;72.36;95251.19;5011624;28;20026;-70
2022/06/04 03:36:39;;;;;;;1999.90;999.90;;;;;;;17.63;72.42;95228.41;5012342;28;20030;-70
2022/06/04 03:39:08;;;;;;;1999.90;999.90;;;;;;;18.70;72.43;95368.34;5012137;28;20771;-69
2022/06/04 03:41:34;;;;;;;1999.90;999.90;;;;;;;18.94;72.55;95383.53;5011642;28;20028;-70
2022/06/04 03:43:59;;;;;;;1999.90;999.90;;;;;;;18.33;71.95;95306.66;5010852;28;20030;-69
2022/06/04 03:46:26;;;;;;;1999.90;999.90;;;;;;;18.23;72.08;95268.72;5012175;28;20041;-70
2022/06/04 03:48:56;;;;;;;1999.90;999.90;;;;;;;18.16;72.18;95227.00;5011710;28;20118;-70
2022/06/04 03:51:23;;;;;;;1999.90;999.90;;;;;;;17.81;71.97;95199.28;5011140;28;20061;-70
2022/06/04 03:53:49;;;;;;;1999.90;999.90;;;;;;;18.22;71.82;95229.44;5010726;28;20107;-71
2022/06/04 03:56:14;;;;;;;1999.90;999.90;;;;;;;19.06;72.01;95337.56;5011977;28;20073;-70
2022/06/04 03:58:40;;;;;;;1999.90;999.90;;;;;;;18.83;71.61;95342.81;5011445;28;20076;-70
2022/06/04 04:01:18;;;;;;;1999.90;999.90;;;;;;;20.06;71.45;95479.91;5011234;28;20034;-70
2022/06/04 04:03:44;;;;;;;1999.90;999.90;;;;;;;20.33;70.87;95494.34;5009910;28;20030;-70
2022/06/04 04:06:15;;;;;;;1999.90;999.90;;;;;;;18.99;70.71;95226.09;5011084;28;20052;-70
2022/06/04 04:08:42;;;;;;;1999.90;999.90;;;;;;;18.51;67.96;95233.56;5010006;28;20478;-71
2022/06/04 04:11:12;;;;;;;1999.90;999.90;;;;;;;18.42;68.86;95231.03;5011746;28;20041;-70
2022/06/04 04:13:37;;;;;;;1999.90;999.90;;;;;;;18.19;70.44;95230.94;5011838;28;20071;-70
2022/06/04 04:16:03;;;;;;;1999.90;999.90;;;;;;;18.49;70.90;95190.81;5012137;28;20101;-70
2022/06/04 04:18:28;;;;;;;1999.90;999.90;;;;;;;20.41;71.08;95435.81;5003284;28;20018;-70
2022/06/04 04:20:54;;;;;;;1999.90;999.90;;;;;;;20.60;70.84;95468.22;5002569;28;20111;-70
2022/06/04 04:23:19;;;;;;;1999.90;999.90;;;;;;;20.85;70.76;95443.53;5011750;28;20053;-71
2022/06/04 04:25:44;;;;;;;1999.90;999.90;;;;;;;19.91;70.46;95243.19;5011884;28;20030;-70
2022/06/04 04:28:10;;;;;;;1999.90;999.90;;;;;;;20.29;70.02;95282.00;5009847;28;20033;-71
2022/06/04 04:30:36;;;;;;;1999.90;999.90;;;;;;;20.44;70.02;95272.97;5010015;28;20034;-70
2022/06/04 04:33:03;;;;;;;1999.90;999.90;;;;;;;21.90;69.97;95464.34;5011114;28;20026;-70
2022/06/04 04:35:31;;;;;;;1999.90;999.90;;;;;;;20.76;69.65;95293.16;5010891;28;20404;-70
2022/06/04 04:37:57;;;;;;;1999.90;999.90;;;;;;;21.05;69.62;95307.06;5011273;28;20076;-71
2022/06/04 04:40:26;;;;;;;1999.90;999.90;;;;;;;20.89;69.12;95239.66;5011433;28;20034;-71
2022/06/04 04:42:52;;;;;;;1999.90;999.90;;;;;;;20.12;69.05;95113.94;5011271;28;20026;-70
2022/06/04 04:45:20;;;;;;;1999.90;999.90;;;;;;;20.74;68.88;95176.50;5011320;28;20731;-71
2022/06/04 04:47:47;;;;;;;1999.90;999.90;;;;;;;22.63;69.14;95450.44;5011029;28;20030;-71
2022/06/04 04:50:19;;;;;;;1999.90;999.90;;;;;;;22.52;68.95;95415.09;5009544;28;20041;-71
2022/06/04 04:52:45;;;;;;;1999.90;999.90;;;;;;;21.23;68.65;95216.06;5009786;28;20022;-71
2022/06/04 04:55:10;;;;;;;1999.90;999.90;;;;;;;21.42;68.69;95254.97;5010898;28;20037;-71
2022/06/04 04:57:35;;;;;;;1999.90;999.90;;;;;;;22.18;68.31;95360.97;5011108;28;20030;-69
2022/06/04 05:00:01;;;;;;;1999.90;999.90;;;;;;;22.77;68.59;95424.22;5008209;28;20037;-71
2022/06/04 05:02:27;;;;;;;1999.90;999.90;;;;;;;22.26;68.74;95334.72;5010882;28;20564;-71
2022/06/04 05:04:52;;;;;;;1999.90;999.90;;;;;;;22.06;68.44;95283.44;5010834;28;20097;-70
2022/06/04 05:07:17;;;;;;;1999.90;999.90;;;;;;;23.02;68.62;95429.88;5010056;28;20037;-70
2022/06/04 05:09:43;;;;;;;1999.90;999.90;;;;;;;22.87;68.64;95400.28;5009633;28;20502;-70
2022/06/04 05:12:09;;;;;;;1999.90;999.90;;;;;;;22.95;68.87;95439.91;5010544;28;20486;-71
2022/06/04 05:14:38;;;;;;;1999.90;999.90;;;;;;;23.09;69.08;95429.94;5009356;28;20113;-71
2022/06/04 05:17:04;;;;;;;1999.90;999.90;;;;;;;23.19;69.24;95433.09;5010975;28;20034;-71
2022/06/04 05:19:31;;;;;;;1999.90;999.90;;;;;;;22.79;69.38;95353.34;5009378;28;20026;-72
2022/06/04 05:21:57;;;;;;;1999.90;999.90;;;;;;;23.71;69.38;95499.00;5010555;28;20080;-71
2022/06/04 05:24:26;;;;;;;1999.90;999.90;;;;;;;23.44;69.38;95444.88;5010540;28;20021;-71
2022/06/04 05:26:53;;;;;;;1999.90;999.90;;;;;;;22.50;69.53;95274.50;5010605;28;20032;-71
2022/06/04 05:29:20;;;;;;;1999.90;999.90;;;;;;;22.80;68.69;95335.91;5009964;28;20113;-70
2022/06/04 05:31:46;;;;;;;1999.90;999.90;;;;;;;22.94;68.74;95351.53;5009512;28;20033;-71
2022/06/04 05:34:13;;;;;;;1999.90;999.90;;;;;;;22.82;69.24;95287.50;5010162;28;20030;-71
2022/06/04 05:36:39;;;;;;;1999.90;999.90;;;;;;;23.02;69.03;95326.00;5009150;28;20493;-70
2022/06/04 05:39:06;;;;;;;1999.90;999.90;;;;;;;22.08;68.73;95180.13;5008562;28;20120;-70
2022/06/04 05:41:31;;;;;;;1999.90;999.90;;;;;;;23.02;69.11;95288.78;5010073;28;20025;-69
2022/06/04 05:43:57;;;;;;;1999.90;999.90;;;;;;;23.21;68.74;95317.56;5008304;28;20013;-69
2022/06/04 05:46:22;;;;;;;1999.90;999.90;;;;;;;24.34;69.08;95479.44;5008950;28;20029;-69
2022/06/04 05:48:48;;;;;;;1999.90;999.90;;;;;;;24.42;69.07;95493.09;5009677;28;20542;-70
2022/06/04 05:51:17;;;;;;;1999.90;999.90;;;;;;;23.00;69.02;95266.69;5009267;28;20372;-70
2022/06/04 05:53:44;;;;;;;1999.90;999.90;;;;;;;23.97;69.47;95395.47;5010094;28;20053;-70
2022/06/04 05:56:14;;;;;;;1999.90;999.90;;;;;;;22.99;69.55;95262.44;5008910;28;20022;-71
2022/06/04 05:58:40;;;;;;;1999.90;999.90;;;;;;;24.45;69.61;95476.78;4990191;28;20035;-71
2022/06/04 06:01:06;;;;;;;1999.90;999.90;;;;;;;23.53;69.81;95334.00;4988342;28;20050;-70
2022/06/04 06:03:32;;;;;;;1999.90;999.90;;;;;;;22.77;70.05;95206.50;4990157;28;20049;-71
2022/06/04 06:05:58;;;;;;;1999.90;999.90;;;;;;;23.27;70.20;95266.41;4997762;28;20026;-70
2022/06/04 06:08:23;;;;;;;1999.90;999.90;;;;;;;24.57;69.53;95451.97;5021756;23;20042;-76
2022/06/04 06:10:49;;;;;;;1999.90;999.90;;;;;;;24.97;70.07;95469.06;5008404;28;20061;-76
2022/06/04 06:13:14;;;;;;;1999.90;999.90;;;;;;;25.54;69.94;95490.84;5008762;28;20462;-75
2022/06/04 06:15:41;;;;;;;1999.90;999.90;;;;;;;25.92;68.67;95459.25;5002829;28;20038;-75
2022/06/04 06:18:07;;;;;;;1999.90;999.90;;;;;;;26.57;67.66;95497.16;4989825;28;20050;-75
2022/06/04 06:20:33;;;;;;;1999.90;999.90;;;;;;;27.04;67.56;95495.66;4989286;28;20018;-73
2022/06/04 06:22:59;;;;;;;1999.90;999.90;;;;;;;27.11;66.96;95487.44;4988874;28;20463;-73
2022/06/04 06:25:25;;;;;;;1999.90;999.90;;;;;;;27.21;66.67;95494.00;4989975;28;20033;-77
2022/06/04 06:27:50;;;;;;;1999.90;999.90;;;;;;;27.27;66.50;95499.81;4988138;28;20463;-76
2022/06/04 06:30:16;;;;;;;1999.90;999.90;;;;;;;25.77;63.42;95493.16;4988102;28;20065;-77
2022/06/04 06:32:41;;;;;;;1999.90;999.90;;;;;;;23.71;66.40;95535.06;4991708;28;20019;-75
2022/06/04 06:35:08;;;;;;;1999.90;999.90;;;;;;;22.68;69.32;95529.53;4989024;28;20026;-68
2022/06/04 06:37:34;;;;;;;1999.90;999.90;;;;;;;22.94;70.80;95536.00;4979605;28;20680;-70
2022/06/04 06:40:00;;;;;;;1999.90;999.90;;;;;;;23.66;70.85;95542.78;4986435;28;20018;-69
2022/06/04 06:42:27;;;;;;;1999.90;999.90;;;;;;;24.85;70.12;95542.94;4988603;28;20129;-69
2022/06/04 06:44:53;;;;;;;1999.90;999.90;;;;;;;25.40;68.71;95542.63;4988078;28;20026;-71
2022/06/04 06:47:19;;;;;;;1999.90;999.90;;;;;;;25.51;67.72;95526.25;4988855;28;20038;-71
2022/06/04 06:49:45;;;;;;;1999.90;999.90;;;;;;;25.50;66.36;95530.94;4989168;28;20046;-71
2022/06/04 06:52:10;;;;;;;1999.90;999.90;;;;;;;24.35;64.91;95543.56;4988464;28;20038;-70
2022/06/04 06:54:37;;;;;;;1999.90;999.90;;;;;;;25.28;66.97;95551.94;4988540;28;20477;-70
2022/06/04 06:57:05;;;;;;;1999.90;999.90;;;;;;;23.88;66.47;95552.63;4989673;28;20088;-72
2022/06/04 06:59:30;;;;;;;1999.90;999.90;;;;;;;22.89;70.53;95552.63;4990151;28;20243;-70
2022/06/04 07:01:57;;;;;;;1999.90;999.90;;;;;;;22.99;71.59;95519.38;4990307;28;20041;-71
2022/06/04 07:04:23;;;;;;;1999.90;999.90;;;;;;;23.52;69.84;95551.59;4992938;28;20487;-71
2022/06/04 07:06:51;;;;;;;1999.90;999.90;;;;;;;24.66;69.00;95563.09;4980595;28;20054;-71
2022/06/04 07:09:18;;;;;;;1999.90;999.90;;;;;;;23.76;69.00;95569.25;4991200;28;20030;-72
2022/06/04 07:11:44;;;;;;;1999.90;999.90;;;;;;;23.34;70.02;95554.19;4991728;28;20034;-72
2022/06/04 07:14:10;;;;;;;1999.90;999.90;;;;;;;23.27;71.21;95573.09;4991656;28;20026;-71
2022/06/04 07:16:36;;;;;;;1999.90;999.90;;;;;;;23.25;71.46;95568.06;4991177;28;20197;-72
2022/06/04 07:19:04;;;;;;;1999.90;999.90;;;;;;;23.42;69.01;95574.00;4991056;28;20033;-72
2022/06/04 07:21:29;;;;;;;1999.90;999.90;;;;;;;22.99;70.90;95560.84;5000720;28;20108;-74
2022/06/04 07:23:56;;;;;;;1999.90;999.90;;;;;;;22.55;73.61;95617.69;5001569;28;20030;-70
2022/06/04 07:26:22;;;;;;;1999.90;999.90;;;;;;;22.55;74.94;95651.00;4995001;28;20031;-73
2022/06/04 07:28:48;;;;;;;1999.90;999.90;;;;;;;22.33;73.44;95651.88;4990897;28;20034;-79
2022/06/04 07:31:14;;;;;;;1999.90;999.90;;;;;;;22.40;74.15;95651.97;4982760;28;20114;-80
2022/06/04 07:33:45;;;;;;;1999.90;999.90;;;;;;;22.42;70.94;95657.00;4985133;28;20038;-80
2022/06/04 07:36:17;;;;;;;1999.90;999.90;;;;;;;21.57;71.73;95659.22;4974132;28;20026;-76
2022/06/04 07:38:44;;;;;;;1999.90;999.90;;;;;;;21.74;69.80;95656.00;4986322;28;20109;-74
2022/06/04 07:41:28;;;;;;;1999.90;999.90;;;;;;;21.73;69.05;95644.38;4990451;28;20037;-74
2022/06/04 07:43:53;;;;;;;1999.90;999.90;;;;;;;21.27;68.64;95619.25;4992995;28;20027;-72
2022/06/04 07:46:20;;;;;;;1999.90;999.90;;;;;;;21.91;68.89;95627.66;4991255;28;20044;-73
2022/06/04 07:48:46;;;;;;;1999.90;999.90;;;;;;;21.64;69.69;95624.91;4991635;28;20034;-75
2022/06/04 07:51:12;;;;;;;1999.90;999.90;;;;;;;21.55;68.58;95621.69;4989772;28;20038;-74
2022/06/04 07:53:38;;;;;;;1999.90;999.90;;;;;;;21.64;66.55;95619.47;4991681;28;20049;-75
2022/06/04 07:56:10;;;;;;;1999.90;999.90;;;;;;;22.12;66.84;95638.81;5006471;28;20479;-75
2022/06/04 07:58:37;;;;;;;1999.90;999.90;;;;;;;21.91;67.94;95620.28;4992882;28;20039;-74
2022/06/04 08:01:04;;;;;;;1999.90;999.90;;;;;;;22.03;65.15;95636.31;4992727;28;20026;-71
2022/06/04 08:03:33;;;;;;;1999.90;999.90;;;;;;;22.20;65.52;95618.78;4987945;28;20033;-74
2022/06/04 08:05:58;;;;;;;1999.90;999.90;;;;;;;22.92;66.65;95604.16;4992938;28;20026;-74
2022/06/04 08:08:23;;;;;;;1999.90;999.90;;;;;;;23.74;64.81;95576.97;4989002;28;20034;-80
2022/06/04 08:10:49;;;;;;;1999.90;999.90;;;;;;;23.21;61.29;95588.97;4990098;28;20525;-75
2022/06/04 08:15:44;;;;;;;1999.90;999.90;;;;;;;24.37;60.12;95598.34;4992357;28;20023;-73
2022/06/04 08:18:10;;;;;;;1999.90;999.90;;;;;;;24.94;65.72;95594.25;4988979;28;20505;-71
2022/06/04 08:20:40;;;;;;;1999.90;999.90;;;;;;;25.77;65.51;95587.75;4989994;28;20046;-71
2022/06/04 08:23:06;;;;;;;1999.90;999.90;;;;;;;26.38;63.71;95574.75;4991497;28;20542;-69
2022/06/04 08:25:32;;;;;;;1999.90;999.90;;;;;;;26.84;62.78;95562.88;4990563;28;20031;-72
2022/06/04 08:27:57;;;;;;;1999.90;999.90;;;;;;;25.71;53.92;95554.66;4990712;28;20056;-72
2022/06/04 08:30:22;;;;;;;1999.90;999.90;;;;;;;26.81;63.50;95542.59;4990738;28;20514;-72
2022/06/04 08:32:47;;;;;;;1999.90;999.90;;;;;;;27.50;61.15;95542.94;4992180;28;20058;-73
2022/06/04 08:35:13;;;;;;;1999.90;999.90;;;;;;;27.38;60.59;95539.53;4988572;28;20037;-72
2022/06/04 08:37:38;;;;;;;1999.90;999.90;;;;;;;28.01;63.10;95541.31;4989966;28;20177;-75
2022/06/04 08:40:04;;;;;;;1999.90;999.90;;;;;;;28.61;64.23;95542.56;4990777;28;20027;-73
2022/06/04 08:42:45;;;;;;;1999.90;999.90;;;;;;;28.96;61.54;95522.16;4990613;28;20022;-73
2022/06/04 08:45:11;;;;;;;1999.90;999.90;;;;;;;29.37;61.11;95523.88;4991968;28;20387;-73
2022/06/04 08:47:43;;;;;;;1999.90;999.90;;;;;;;29.70;61.95;95522.16;4990872;28;20058;-73
2022/06/04 08:50:08;;;;;;;1999.90;999.90;;;;;;;30.03;60.39;95531.34;4988358;28;20030;-73
2022/06/04 08:52:43;;;;;;;1999.90;999.90;;;;;;;30.34;58.91;95540.19;4988288;28;20423;-72
2022/06/04 08:58:48;;;;;;;1999.90;999.90;;;;;;;30.76;57.40;95537.75;4991045;28;20446;-73
2022/06/04 09:01:23;;;;;;;1999.90;999.90;;;;;;;30.52;56.89;95540.59;4990804;28;20039;-77
2022/06/04 09:04:17;;;;;;;1999.90;999.90;;;;;;;30.45;57.79;95526.22;4990251;28;20030;-72
2022/06/04 09:06:50;;;;;;;1999.90;999.90;;;;;;;29.70;49.48;95533.13;4989693;28;20046;-75
2022/06/04 09:09:24;;;;;;;1999.90;999.90;;;;;;;30.01;57.15;95529.03;4990638;28;20083;-77
2022/06/04 09:11:56;;;;;;;1999.90;999.90;;;;;;;30.07;48.72;95528.53;4971156;28;20034;-77
2022/06/04 09:14:42;;;;;;;1999.90;999.90;;;;;;;30.73;57.69;95527.66;4990074;28;20034;-77
2022/06/04 09:17:19;;;;;;;1999.90;999.90;;;;;;;31.16;54.69;95521.16;4991884;28;20033;-76
2022/06/04 09:19:53;;;;;;;1999.90;999.90;;;;;;;31.58;51.25;95533.13;4991304;28;20031;-78
2022/06/04 09:22:29;;;;;;;1999.90;999.90;;;;;;;31.96;55.57;95532.59;4985707;28;20077;-79
2022/06/04 09:24:54;;;;;;;1999.90;999.90;;;;;;;32.17;51.52;95536.75;4974298;28;20037;-75
2022/06/04 09:27:50;;;;;;;1999.90;999.90;;;;;;;32.37;50.84;95542.88;4989464;28;20034;-75
2022/06/04 09:30:34;;;;;;;1999.90;999.90;;;;;;;32.48;50.22;95543.34;4990733;28;20526;-75
2022/06/04 09:33:10;;;;;;;1999.90;999.90;;;;;;;30.07;38.51;95539.50;4989513;28;20022;-76
2022/06/04 09:35:40;;;;;;;1999.90;999.90;;;;;;;29.92;38.65;95537.03;4987459;28;20034;-80
2022/06/04 09:38:31;;;;;;;1999.90;999.90;;;;;;;28.79;47.92;95548.56;4989090;28;20019;-83
2022/06/04 09:41:18;;;;;;;1999.90;999.90;;;;;;;27.65;45.14;95547.09;4980732;28;20031;-75
2022/06/04 09:43:44;;;;;;;1999.90;999.90;;;;;;;26.85;49.20;95557.00;4989933;28;20033;-75
2022/06/04 09:46:13;;;;;;;1999.90;999.90;;;;;;;26.74;47.31;95545.38;4991233;28;20356;-85
2022/06/04 09:48:51;;;;;;;1999.90;999.90;;;;;;;26.69;46.79;95529.44;4991271;28;20117;-75
2022/06/04 09:51:21;;;;;;;1999.90;999.90;;;;;;;25.25;48.55;95538.34;4989380;28;20030;-78
2022/06/04 09:54:19;;;;;;;1999.90;999.90;;;;;;;25.64;49.87;95530.94;4990090;28;20045;-75
2022/06/04 09:56:52;;;;;;;1999.90;999.90;;;;;;;25.73;50.05;95535.94;4988918;28;20028;-72
2022/06/04 09:59:24;;;;;;;1999.90;999.90;;;;;;;26.55;46.34;95540.41;4989313;28;20526;-72
2022/06/04 10:02:22;;;;;;;1999.90;999.90;;;;;;;26.36;47.98;95547.88;4971198;28;20031;-71
2022/06/04 10:04:57;;;;;;;1999.90;999.90;;;;;;;27.06;51.29;95541.69;4944029;28;20380;-75
2022/06/04 10:07:33;;;;;;;1999.90;999.90;;;;;;;25.76;47.24;95546.09;4975181;28;20607;-77
2022/06/04 10:10:02;;;;;;;1999.90;999.90;;;;;;;25.45;46.86;95549.63;4972234;28;20031;-73
2022/06/04 10:15:36;;;;;;;1999.90;999.90;;;;;;;26.00;50.54;95535.53;4991187;28;20057;-72
2022/06/04 10:18:29;;;;;;;1999.90;999.90;;;;;;;26.38;47.91;95533.84;4989712;28;20062;-71
2022/06/04 10:20:56;;;;;;;1999.90;999.90;;;;;;;26.30;50.63;95522.19;4980382;28;20054;-74
2022/06/04 10:23:23;;;;;;;1999.90;999.90;;;;;;;25.48;46.41;95527.81;4988446;28;20054;-71
2022/06/04 10:26:07;;;;;;;1999.90;999.90;;;;;;;26.39;50.01;95521.75;4989682;28;20026;-70
2022/06/04 10:28:46;;;;;;;1999.90;999.90;;;;;;;26.18;46.48;95522.63;4989011;28;20045;-72
2022/06/04 10:31:24;;;;;;;1999.90;999.90;;;;;;;25.61;50.13;95533.66;4988611;28;20037;-70
2022/06/04 10:34:18;;;;;;;1999.90;999.90;;;;;;;25.55;47.68;95525.09;4991530;28;20161;-71
2022/06/04 10:36:49;;;;;;;1999.90;999.90;;;;;;;25.77;49.86;95533.25;4990105;28;20078;-75
2022/06/04 10:39:37;;;;;;;1999.90;999.90;;;;;;;25.76;46.70;95539.88;4992350;28;20026;-70
2022/06/04 10:42:23;;;;;;;1999.90;999.90;;;;;;;26.07;47.94;95522.66;4992033;28;20030;-75
2022/06/04 10:45:13;;;;;;;1999.90;999.90;;;;;;;25.95;47.11;95534.00;4994003;28;20027;-70
2022/06/04 10:48:04;;;;;;;1999.90;999.90;;;;;;;26.34;49.68;95511.25;4991941;28;20553;-72
2022/06/04 10:54:01;;;;;;;1999.90;999.90;;;;;;;26.79;50.92;95516.91;4991005;28;20827;-69
2022/06/04 10:56:35;;;;;;;1999.90;999.90;;;;;;;25.96;48.37;95511.03;4993005;28;20034;-69
2022/06/04 10:59:09;;;;;;;1999.90;999.90;;;;;;;26.35;48.18;95508.13;4990831;28;20046;-66
2022/06/04 11:02:06;;;;;;;1999.90;999.90;;;;;;;26.47;52.10;95511.63;4992187;28;20051;-69
2022/06/04 11:04:52;;;;;;;1999.90;999.90;;;;;;;26.25;47.57;95500.78;4993536;28;20026;-69
2022/06/04 11:07:52;;;;;;;1999.90;999.90;;;;;;;25.97;48.86;95501.66;4991358;28;20026;-68
2022/06/04 11:10:22;;;;;;;1999.90;999.90;;;;;;;26.52;48.91;95505.75;4990756;28;20030;-69
2022/06/04 11:13:04;;;;;;;1999.90;999.90;;;;;;;26.78;48.80;95493.53;4991791;28;20030;-69
2022/06/04 11:15:53;;;;;;;1999.90;999.90;;;;;;;26.16;47.25;95490.31;4992021;28;20030;-71
2022/06/04 11:18:24;;;;;;;1999.90;999.90;;;;;;;26.61;48.08;95489.72;4967534;28;20062;-70
2022/06/04 11:21:01;;;;;;;1999.90;999.90;;;;;;;26.51;45.39;95490.53;4979625;28;20029;-70
2022/06/04 11:23:40;;;;;;;1999.90;999.90;;;;;;;25.92;46.88;95475.59;4986315;28;20040;-73
2022/06/04 11:26:16;;;;;;;1999.90;999.90;;;;;;;26.68;48.79;95481.50;4992941;28;20539;-75
2022/06/04 11:28:41;;;;;;;1999.90;999.90;;;;;;;26.68;46.53;95476.03;4991911;28;20391;-70
2022/06/04 11:31:25;;;;;;;1999.90;999.90;;;;;;;26.85;45.33;95485.28;4991902;28;20045;-70